»·PEaware :: N89455 KSAN-KLAX

N89455 :: KSAN-KLAX

FLIGHT INFORMATION

Flight Status: Arrived
Operator: Privately registered:
United States
More flights under this callsign
Pilot: Dretana A. (25430)
Aircraft: CESSNA 206 STATIONAIR
(C206)
More flights by this aircraft type
Origin: KSAN San Diego Intl-Lindbergh
United States
Destination: KLAX Los Angeles Intl
United States
More flights between these airports :: More routes between these airports
Route: OCN V23 SLI
File this flight plan on PilotEdge
Remarks:
Altitude:
(Current/Filed)
6,000ft
Speed:
(Current/Filed)
180kts
Departed: 21-Aug-19 06:42 PM
Arrived: 21-Aug-19 07:33 PM
Distance/Time
Traveled:
94nm/0:51
Distance/Time
To Go:
Arrived

Flight Plot

Page will automatically refresh every two minutes.


Map Options




Map Legend


Flown Route
Filed Route
Departure Airport
Arrival Airport
Navaid (VOR, NDB)
Fix

Horizontal Profiles

Position Reports

Time Latitude Longitude Heading Altitude Ground
Speed
21-Aug-19 18:27 32.733218 -117.181054 16 18ft 0kts
21-Aug-19 18:28 32.733218 -117.181054 16 18ft 0kts
21-Aug-19 18:29 32.733218 -117.181054 16 18ft 0kts
21-Aug-19 18:30 32.733219 -117.181054 16 18ft 0kts
21-Aug-19 18:31 32.733219 -117.181054 16 18ft 0kts
21-Aug-19 18:32 32.733219 -117.181054 16 18ft 0kts
21-Aug-19 18:33 32.733219 -117.181054 16 18ft 0kts
21-Aug-19 18:34 32.733219 -117.181054 16 18ft 0kts
21-Aug-19 18:35 32.733219 -117.181053 16 18ft 0kts
21-Aug-19 18:36 32.733219 -117.181053 16 18ft 0kts
21-Aug-19 18:37 32.733219 -117.181053 16 18ft 0kts
21-Aug-19 18:38 32.732503 -117.181273 151 19ft 12kts
21-Aug-19 18:39 32.731095 -117.175528 102 19ft 16kts
21-Aug-19 18:40 32.730688 -117.175157 185 18ft 0kts
21-Aug-19 18:41 32.730474 -117.176970 284 19ft 11kts
21-Aug-19 18:42 32.736825 -117.202312 289 270ft 122kts
21-Aug-19 18:43 32.760837 -117.229387 327 614ft 122kts
21-Aug-19 18:43 32.782954 -117.249340 325 1010ft 116kts
21-Aug-19 18:45 32.812723 -117.274646 324 1651ft 112kts
21-Aug-19 18:46 32.837473 -117.296959 325 2211ft 112kts
21-Aug-19 18:46 32.858352 -117.314881 325 2703ft 110kts
21-Aug-19 18:47 32.887728 -117.328199 349 3161ft 119kts
21-Aug-19 18:49 32.923315 -117.336856 350 3945ft 108kts
21-Aug-19 18:49 32.947864 -117.342328 347 4462ft 106kts
21-Aug-19 18:50 32.976802 -117.347974 351 5065ft 107kts
21-Aug-19 18:51 33.006301 -117.353487 332 5609ft 105kts
21-Aug-19 18:52 33.034437 -117.363799 352 6118ft 115kts
21-Aug-19 18:53 33.067393 -117.370920 330 6035ft 135kts
21-Aug-19 18:54 33.102806 -117.380075 346 5958ft 130kts
21-Aug-19 18:55 33.137341 -117.389553 331 6012ft 120kts
21-Aug-19 18:56 33.171683 -117.399483 341 5766ft 137kts
21-Aug-19 18:57 33.205304 -117.408787 341 6002ft 124kts
21-Aug-19 18:58 33.239531 -117.418198 329 6000ft 124kts
21-Aug-19 18:59 33.264424 -117.445568 311 6000ft 121kts
21-Aug-19 19:00 33.288573 -117.473867 311 5999ft 122kts
21-Aug-19 19:01 33.312865 -117.502209 311 6000ft 122kts
21-Aug-19 19:02 33.337122 -117.530504 311 6000ft 122kts
21-Aug-19 19:03 33.361423 -117.558864 311 6000ft 122kts
21-Aug-19 19:04 33.385702 -117.587222 311 6000ft 122kts
21-Aug-19 19:05 33.409957 -117.615573 311 6000ft 122kts
21-Aug-19 19:06 33.434217 -117.643956 311 6000ft 122kts
21-Aug-19 19:07 33.458496 -117.672384 311 6000ft 122kts
21-Aug-19 19:08 33.482745 -117.700799 311 6000ft 122kts
21-Aug-19 19:09 33.507036 -117.729323 311 6000ft 122kts
21-Aug-19 19:10 33.531259 -117.757792 311 6000ft 122kts
21-Aug-19 19:11 33.555457 -117.786246 311 6000ft 122kts
21-Aug-19 19:12 33.579665 -117.814710 311 6000ft 122kts
21-Aug-19 19:13 33.603906 -117.843236 311 6000ft 122kts
21-Aug-19 19:14 33.623222 -117.865984 311 6000ft 122kts
21-Aug-19 19:15 33.647518 -117.894633 311 6000ft 122kts
21-Aug-19 19:16 33.671683 -117.923146 311 6000ft 122kts
21-Aug-19 19:17 33.695887 -117.951692 312 6000ft 122kts
21-Aug-19 19:18 33.720182 -117.980298 311 6000ft 122kts
21-Aug-19 19:19 33.744409 -118.008940 311 6000ft 122kts
21-Aug-19 19:20 33.768496 -118.037563 311 5892ft 123kts
21-Aug-19 19:21 33.794993 -118.064739 322 5096ft 128kts
21-Aug-19 19:22 33.823209 -118.091884 320 4299ft 125kts
21-Aug-19 19:23 33.851153 -118.118889 321 3694ft 129kts
21-Aug-19 19:24 33.880206 -118.145597 323 3144ft 131kts
21-Aug-19 19:25 33.907918 -118.173143 322 2986ft 124kts
21-Aug-19 19:26 33.935012 -118.199254 317 2963ft 126kts
21-Aug-19 19:27 33.947025 -118.236891 275 2534ft 126kts
21-Aug-19 19:28 33.947050 -118.277567 259 2229ft 114kts
21-Aug-19 19:29 33.944049 -118.316351 263 1527ft 113kts
21-Aug-19 19:30 33.941105 -118.349085 262 702ft 83kts
21-Aug-19 19:31 33.938250 -118.376591 261 305ft 80kts
21-Aug-19 19:32 33.935870 -118.393695 181 130ft 12kts
21-Aug-19 19:33 33.934908 -118.393739 189 130ft 17kts
21-Aug-19 19:34 33.934331 -118.394199 356 129ft 0kts
21-Aug-19 19:35 33.934331 -118.394199 356 129ft 0kts
21-Aug-19 19:36 33.934331 -118.394199 356 129ft 0kts
21-Aug-19 19:37 33.934331 -118.394199 356 129ft 0kts
21-Aug-19 19:38 33.934331 -118.394199 356 129ft 0kts
21-Aug-19 19:39 33.934331 -118.394199 356 129ft 0kts
21-Aug-19 19:40 33.934331 -118.394199 356 129ft 0kts

Navigation Log

Ident Type
Flight plan parsing failed, navigation log unavailable